Time;durP1;ratioP1;P1;durP2;ratioP2;P2;SDS_P1;SDS_P2;PMS_P1;PMS_P2;Temp;Humidity;BMP_temperature;BMP_pressure;BME280_temperature;BME280_humidity;BME280_pressure;Samples;Min_cycle;Max_cycle;Signal;HPM_P1;HPM_P2
2023/01/12 00:03:28;;;;;;;1999.90;999.90;;;9.90;99.90;;;;;;6632805;88;20188;-74
2023/01/12 00:13:30;;;;;;;1999.90;999.90;;;9.90;99.90;;;;;;6634160;88;20524;-75
2023/01/12 00:23:31;;;;;;;1999.90;999.90;;;9.90;99.90;;;;;;6630682;88;20223;-75
2023/01/12 00:33:31;;;;;;;1999.90;999.90;;;9.90;99.90;;;;;;6630509;88;20228;-75
2023/01/12 00:53:51;;;;;;;1999.90;999.90;;;9.80;99.90;;;;;;6627107;88;20193;-73
2023/01/12 01:03:52;;;;;;;1999.90;999.90;;;9.80;99.90;;;;;;6633862;88;20242;-74
2023/01/12 01:13:53;;;;;;;1999.90;999.90;;;9.80;99.90;;;;;;6639475;88;20215;-75
2023/01/12 01:23:54;;;;;;;1999.90;999.90;;;9.90;99.90;;;;;;6629396;88;20230;-75
2023/01/12 01:33:54;;;;;;;1999.90;999.90;;;9.80;99.90;;;;;;6635160;88;20193;-75
2023/01/12 01:43:57;;;;;;;1999.90;999.90;;;9.80;99.90;;;;;;6634462;89;20176;-75
2023/01/12 01:53:59;;;;;;;1999.90;999.90;;;9.80;99.90;;;;;;6627692;89;20196;-74
2023/01/12 02:03:59;;;;;;;1999.90;999.90;;;9.90;99.90;;;;;;6633275;88;20266;-75
2023/01/12 02:24:28;;;;;;;1999.90;999.90;;;9.70;99.90;;;;;;6631695;88;20270;-75
2023/01/12 02:34:50;;;;;;;1999.90;999.90;;;9.70;99.90;;;;;;6627378;88;20319;-75
2023/01/12 02:45:03;;;;;;;1999.90;999.90;;;9.80;99.90;;;;;;6632551;89;20325;-75
2023/01/12 02:55:05;;;;;;;1999.90;999.90;;;9.80;99.90;;;;;;6629835;89;20615;-75
2023/01/12 03:05:07;;;;;;;1999.90;999.90;;;9.80;99.90;;;;;;6630591;89;20238;-75
2023/01/12 03:15:09;;;;;;;1999.90;999.90;;;9.90;99.90;;;;;;6628500;89;20712;-75
2023/01/12 03:25:13;;;;;;;1999.90;999.90;;;9.90;99.90;;;;;;6633182;89;20987;-74
2023/01/12 03:35:13;;;;;;;1999.90;999.90;;;9.90;99.90;;;;;;6630919;89;20185;-75
2023/01/12 03:45:35;;;;;;;1999.90;999.90;;;9.90;99.90;;;;;;6628843;89;20239;-74
2023/01/12 03:55:37;;;;;;;1999.90;999.90;;;9.90;99.90;;;;;;6629777;88;21188;-75
2023/01/12 04:05:40;;;;;;;1999.90;999.90;;;9.90;99.90;;;;;;6627272;88;20229;-75
2023/01/12 04:15:41;;;;;;;1999.90;999.90;;;9.70;99.90;;;;;;6629289;89;20200;-75
2023/01/12 04:25:41;;;;;;;1999.90;999.90;;;9.60;99.90;;;;;;6630957;88;20245;-75
2023/01/12 04:35:42;;;;;;;1999.90;999.90;;;9.60;99.90;;;;;;6635518;88;20255;-75
2023/01/12 04:45:42;;;;;;;1999.90;999.90;;;9.60;99.90;;;;;;6635117;88;20242;-75
2023/01/12 04:55:43;;;;;;;1999.90;999.90;;;9.70;99.90;;;;;;6634122;89;20207;-74
2023/01/12 05:05:44;;;;;;;1999.90;999.90;;;9.30;99.90;;;;;;6636231;89;20243;-74
2023/01/12 05:15:44;;;;;;;1999.90;999.90;;;9.70;99.90;;;;;;6634644;88;20264;-75
2023/01/12 05:25:45;;;;;;;1999.90;999.90;;;9.60;99.90;;;;;;6628354;88;20835;-75
2023/01/12 05:35:45;;;;;;;1999.90;999.90;;;9.60;99.90;;;;;;6630334;89;20553;-75
2023/01/12 05:45:46;;;;;;;1999.90;999.90;;;9.60;99.90;;;;;;6634510;88;20205;-75
2023/01/12 05:55:47;;;;;;;1999.90;999.90;;;9.50;99.90;;;;;;6631258;89;20725;-75
2023/01/12 06:05:55;;;;;;;1999.90;999.90;;;9.30;99.90;;;;;;6631940;88;20729;-74
2023/01/12 06:16:05;;;;;;;1999.90;999.90;;;9.10;99.90;;;;;;6637108;88;20200;-74
2023/01/12 06:26:07;;;;;;;1999.90;999.90;;;8.90;99.90;;;;;;6627109;88;20197;-75
2023/01/12 06:36:09;;;;;;;1999.90;999.90;;;8.80;99.90;;;;;;6636455;88;20660;-75
2023/01/12 06:46:09;;;;;;;1999.90;999.90;;;8.80;99.90;;;;;;6629249;88;20414;-75
2023/01/12 06:56:10;;;;;;;1999.90;999.90;;;8.90;99.90;;;;;;6627394;88;20185;-76
2023/01/12 07:06:11;;;;;;;1999.90;999.90;;;8.90;99.90;;;;;;6634963;88;20221;-76
2023/01/12 07:16:12;;;;;;;1999.90;999.90;;;9.00;99.90;;;;;;6632326;88;20621;-76
2023/01/12 07:26:13;;;;;;;1999.90;999.90;;;9.00;99.90;;;;;;6633960;88;20215;-77
2023/01/12 07:36:13;;;;;;;1999.90;999.90;;;8.90;99.90;;;;;;6636419;88;20707;-76
2023/01/12 07:46:14;;;;;;;1999.90;999.90;;;8.90;99.90;;;;;;6629774;89;20221;-76
2023/01/12 07:56:15;;;;;;;1999.90;999.90;;;8.90;99.90;;;;;;6630582;88;20218;-77
2023/01/12 08:06:16;;;;;;;1999.90;999.90;;;9.10;99.90;;;;;;6623239;88;20237;-77
2023/01/12 08:16:21;;;;;;;1999.90;999.90;;;9.20;99.90;;;;;;6633263;89;20185;-76
2023/01/12 08:26:35;;;;;;;1999.90;999.90;;;9.20;99.90;;;;;;6632727;88;20212;-76
2023/01/12 08:36:38;;;;;;;1999.90;999.90;;;9.40;99.90;;;;;;6636218;89;20267;-76
2023/01/12 08:46:50;;;;;;;1999.90;999.90;;;9.60;99.90;;;;;;6633868;89;20233;-76
2023/01/12 08:56:53;;;;;;;1999.90;999.90;;;9.70;99.90;;;;;;6634086;89;20396;-76
2023/01/12 09:06:54;;;;;;;1999.90;999.90;;;9.70;99.90;;;;;;6635850;88;20282;-76
2023/01/12 09:16:55;;;;;;;1999.90;999.90;;;9.70;99.90;;;;;;6636173;88;20893;-76
2023/01/12 09:26:56;;;;;;;1999.90;999.90;;;9.90;99.90;;;;;;6637515;88;20602;-76
2023/01/12 09:36:58;;;;;;;1999.90;999.90;;;10.20;99.90;;;;;;6638517;88;20210;-76
2023/01/12 09:46:59;;;;;;;1999.90;999.90;;;10.20;99.90;;;;;;6633613;88;20202;-76
2023/01/12 09:57:35;;;;;;;1999.90;999.90;;;10.20;99.90;;;;;;6637294;89;20189;-76
2023/01/12 10:07:36;;;;;;;1999.90;999.90;;;10.10;99.90;;;;;;6632334;88;20202;-77
2023/01/12 10:17:45;;;;;;;1999.90;999.90;;;10.30;99.90;;;;;;6636427;88;20201;-76
2023/01/12 10:27:48;;;;;;;1999.90;999.90;;;10.40;99.90;;;;;;6633136;89;20186;-76
2023/01/12 10:37:54;;;;;;;1999.90;999.90;;;10.50;99.90;;;;;;6631686;88;20239;-76
2023/01/12 10:47:56;;;;;;;;;;;10.60;99.90;;;;;;6639544;89;20696;-77
2023/01/12 10:57:57;;;;;;;1999.90;999.90;;;10.90;99.90;;;;;;6647762;88;20082;-76
2023/01/12 11:07:59;;;;;;;1999.90;999.90;;;11.20;99.90;;;;;;6637718;88;20198;-76
2023/01/12 11:18:23;;;;;;;1999.90;999.90;;;11.30;99.90;;;;;;6636669;89;20198;-76
2023/01/12 11:28:33;;;;;;;1999.90;999.90;;;11.30;99.90;;;;;;6623344;88;20620;-77
2023/01/12 11:38:40;;;;;;;1999.90;999.90;;;11.50;99.90;;;;;;6636937;89;20712;-76
2023/01/12 11:48:50;;;;;;;1999.90;999.90;;;11.70;99.90;;;;;;6633837;89;20205;-76
2023/01/12 11:59:06;;;;;;;1999.90;999.90;;;11.80;99.90;;;;;;6639191;89;20181;-76
2023/01/12 12:09:16;;;;;;;1999.90;999.90;;;11.90;99.90;;;;;;6639731;88;20697;-76
2023/01/12 12:19:56;;;;;;;1999.90;999.90;;;11.80;99.90;;;;;;6636109;89;20656;-75
2023/01/12 12:30:22;;;;;;;1999.90;999.90;;;11.90;99.90;;;;;;6640343;89;20194;-76
2023/01/12 12:51:18;;;;;;;1999.90;999.90;;;11.80;99.90;;;;;;6635762;88;20679;-76
2023/01/12 13:01:22;;;;;;;1999.90;999.90;;;11.60;99.90;;;;;;6626162;89;20327;-76
2023/01/12 13:11:47;;;;;;;1999.90;999.90;;;11.20;99.90;;;;;;6639863;88;20221;-75
2023/01/12 13:21:55;;;;;;;1999.90;999.90;;;10.90;99.90;;;;;;6632892;89;20313;-75
2023/01/12 13:31:58;;;;;;;1999.90;999.90;;;10.70;99.90;;;;;;6631377;88;20261;-76
2023/01/12 13:52:28;;;;;;;1999.90;999.90;;;11.10;99.90;;;;;;6642130;88;20196;-76
2023/01/12 14:02:31;;;;;;;1999.90;999.90;;;11.20;99.90;;;;;;6639853;89;20185;-76
2023/01/12 14:12:53;;;;;;;1999.90;999.90;;;11.50;99.90;;;;;;6624679;89;20703;-76
2023/01/12 14:23:14;;;;;;;1999.90;999.90;;;11.50;99.90;;;;;;6622413;88;20255;-75
2023/01/12 14:33:19;;;;;;;1999.90;999.90;;;11.50;99.90;;;;;;6624372;88;20193;-75
2023/01/12 14:53:41;;;;;;;1999.90;999.90;;;11.50;99.90;;;;;;6633833;89;20229;-76
2023/01/12 15:03:44;;;;;;;1999.90;999.90;;;11.60;99.90;;;;;;6635046;89;20669;-76
2023/01/12 15:13:55;;;;;;;1999.90;999.90;;;11.70;99.90;;;;;;6634389;89;20804;-75
2023/01/12 15:34:15;;;;;;;1999.90;999.90;;;11.80;99.90;;;;;;6638131;88;20381;-76
2023/01/12 15:44:20;;;;;;;1999.90;999.90;;;11.80;99.90;;;;;;6628355;88;20327;-75
2023/01/12 15:54:21;;;;;;;1999.90;999.90;;;11.80;99.90;;;;;;6630852;88;20246;-76
2023/01/12 16:04:23;;;;;;;1999.90;999.90;;;11.80;99.90;;;;;;6630808;88;20689;-78
2023/01/12 16:14:24;;;;;;;1999.90;999.90;;;11.80;99.90;;;;;;6626093;88;20668;-77
2023/01/12 16:24:25;;;;;;;1999.90;999.90;;;11.70;99.90;;;;;;6630380;89;20197;-75
2023/01/12 16:34:26;;;;;;;1999.90;999.90;;;11.50;99.90;;;;;;6633850;89;20303;-76
2023/01/12 16:44:26;;;;;;;1999.90;999.90;;;11.60;99.90;;;;;;6632140;89;20192;-75
2023/01/12 16:54:27;;;;;;;1999.90;999.90;;;11.60;99.90;;;;;;6630780;89;20674;-75
2023/01/12 17:04:28;;;;;;;1999.90;999.90;;;11.50;99.90;;;;;;6634023;89;20197;-74
2023/01/12 17:14:32;;;;;;;1999.90;999.90;;;11.50;99.90;;;;;;6635950;89;20214;-74
2023/01/12 17:24:35;;;;;;;1999.90;999.90;;;11.50;99.90;;;;;;6637946;88;20513;-75
2023/01/12 17:34:37;;;;;;;1999.90;999.90;;;11.40;99.90;;;;;;6636595;89;20204;-74
2023/01/12 17:44:38;;;;;;;1999.90;999.90;;;11.40;99.90;;;;;;6632965;88;20212;-75
2023/01/12 17:54:39;;;;;;;1999.90;999.90;;;11.50;99.90;;;;;;6637896;88;20236;-76
2023/01/12 18:04:39;;;;;;;1999.90;999.90;;;11.50;99.90;;;;;;6633383;88;20227;-76
2023/01/12 18:14:40;;;;;;;1999.90;999.90;;;11.40;99.90;;;;;;6639792;88;20242;-75
2023/01/12 18:24:41;;;;;;;1999.90;999.90;;;11.40;99.90;;;;;;6651807;88;20680;-76
2023/01/12 18:34:43;;;;;;;1999.90;999.90;;;11.50;99.90;;;;;;6639415;88;20508;-76
2023/01/12 18:44:45;;;;;;;1999.90;999.90;;;11.50;99.90;;;;;;6662726;88;20216;-77
2023/01/12 18:54:46;;;;;;;1999.90;999.90;;;11.70;99.90;;;;;;6643339;88;20319;-76
2023/01/12 19:35:36;;;;;;;1999.90;999.90;;;11.40;99.90;;;;;;6640081;88;20284;-74
2023/01/12 19:45:38;;;;;;;1999.90;999.90;;;11.50;99.90;;;;;;6625885;88;20203;-73
2023/01/12 19:55:40;;;;;;;1999.90;999.90;;;11.70;99.90;;;;;;6618064;88;20173;-75
2023/01/12 20:05:42;;;;;;;1999.90;999.90;;;11.80;99.90;;;;;;6620614;89;20627;-74
2023/01/12 20:15:43;;;;;;;1999.90;999.90;;;11.90;99.90;;;;;;6620256;88;20644;-75
2023/01/12 20:25:44;;;;;;;1999.90;999.90;;;11.90;99.90;;;;;;6629950;88;20266;-75
2023/01/12 20:35:46;;;;;;;1999.90;999.90;;;11.80;99.90;;;;;;6632810;88;20208;-75
2023/01/12 20:45:48;;;;;;;1999.90;999.90;;;11.70;99.90;;;;;;6634696;88;20565;-75
2023/01/12 20:55:49;;;;;;;1999.90;999.90;;;11.70;99.90;;;;;;6627434;88;20219;-75
2023/01/12 21:05:50;;;;;;;1999.90;999.90;;;11.70;99.90;;;;;;6622263;88;20238;-75
2023/01/12 21:16:01;;;;;;;1999.90;999.90;;;11.60;99.90;;;;;;6626357;88;20194;-76
2023/01/12 21:26:06;;;;;;;1999.90;999.90;;;11.60;99.90;;;;;;6625789;88;21015;-75
2023/01/12 21:36:07;;;;;;;1999.90;999.90;;;11.70;99.90;;;;;;6627694;88;20201;-76
2023/01/12 21:46:10;;;;;;;1999.90;999.90;;;11.70;99.90;;;;;;6632447;88;20198;-76
2023/01/12 21:56:12;;;;;;;1999.90;999.90;;;11.70;99.90;;;;;;6627461;88;20303;-77
2023/01/12 22:06:12;;;;;;;1999.90;999.90;;;11.60;99.90;;;;;;6631484;88;20372;-76
2023/01/12 22:16:14;;;;;;;1999.90;999.90;;;11.50;99.90;;;;;;6632103;89;20596;-77
2023/01/12 22:26:16;;;;;;;1999.90;999.90;;;11.60;99.90;;;;;;6639352;88;20820;-76
2023/01/12 22:36:16;;;;;;;1999.90;999.90;;;11.50;99.90;;;;;;6633899;89;20350;-76
2023/01/12 22:46:20;;;;;;;1999.90;999.90;;;11.40;99.90;;;;;;6634004;89;20247;-76
2023/01/12 22:56:21;;;;;;;1999.90;999.90;;;11.40;99.90;;;;;;6636447;89;20637;-77
2023/01/12 23:06:23;;;;;;;1999.90;999.90;;;11.30;99.90;;;;;;6632508;88;20231;-76
2023/01/12 23:16:24;;;;;;;1999.90;999.90;;;11.50;99.90;;;;;;6634121;88;20172;-76
2023/01/12 23:26:28;;;;;;;1999.90;999.90;;;11.60;99.90;;;;;;6636216;88;20953;-76
2023/01/12 23:36:29;;;;;;;1999.90;999.90;;;11.60;99.90;;;;;;6636236;89;20193;-77
2023/01/12 23:46:34;;;;;;;1999.90;999.90;;;11.80;99.90;;;;;;6633448;89;20222;-77
2023/01/12 23:56:35;;;;;;;1999.90;999.90;;;11.90;99.90;;;;;;6633991;88;20391;-77
